Time;durP1;ratioP1;P1;durP2;ratioP2;P2;SDS_P1;SDS_P2;PMS_P1;PMS_P2;Temp;Humidity;BMP_temperature;BMP_pressure;BME280_temperature;BME280_humidity;BME280_pressure;Samples;Min_cycle;Max_cycle;Signal;HPM_P1;HPM_P2
2023/04/07 00:00:07;;;;;;;9.53;8.70;;;;;;;6.27;59.26;100950.84;5036799;28;20711;-81
2023/04/07 00:02:33;;;;;;;9.80;8.93;;;;;;;6.23;59.55;100949.09;5036630;28;20260;-81
2023/04/07 00:05:01;;;;;;;10.17;8.80;;;;;;;6.18;60.33;100936.09;5036604;28;20229;-81
2023/04/07 00:07:28;;;;;;;10.03;8.57;;;;;;;6.04;60.11;100914.38;5029485;28;20733;-83
2023/04/07 00:09:54;;;;;;;10.57;8.80;;;;;;;6.03;60.48;100905.75;5036830;28;20211;-81
2023/04/07 00:12:21;;;;;;;10.23;9.33;;;;;;;5.90;61.04;100888.34;5037245;28;20302;-81
2023/04/07 00:14:47;;;;;;;9.40;8.57;;;;;;;5.93;60.76;100875.44;5036853;28;20229;-81
2023/04/07 00:17:13;;;;;;;9.30;8.50;;;;;;;5.91;60.18;100866.78;5036597;28;20252;-82
2023/04/07 00:19:40;;;;;;;9.53;8.70;;;;;;;5.91;60.23;100865.03;5036665;28;20263;-82
2023/04/07 00:22:07;;;;;;;11.93;8.93;;;;;;;5.66;60.57;100871.75;5036696;28;20210;-82
2023/04/07 00:24:34;;;;;;;9.13;8.33;;;;;;;5.67;61.00;100867.44;5036364;28;20283;-79
2023/04/07 00:27:00;;;;;;;10.07;8.80;;;;;;;5.54;60.08;100851.81;5036850;28;20329;-79
2023/04/07 00:29:27;;;;;;;10.20;9.20;;;;;;;5.53;59.15;100844.00;5036795;28;20245;-81
2023/04/07 00:31:53;;;;;;;9.47;8.57;;;;;;;5.56;59.44;100863.03;5036418;28;20209;-79
2023/04/07 00:34:19;;;;;;;10.20;9.20;;;;;;;5.63;60.08;100888.97;5036550;28;20250;-80
2023/04/07 00:36:50;;;;;;;9.53;8.63;;;;;;;5.66;59.09;100874.34;5032990;28;20245;-79
2023/04/07 00:39:18;;;;;;;9.47;8.57;;;;;;;5.77;59.39;100892.56;5016215;28;20239;-79
2023/04/07 00:41:45;;;;;;;9.40;8.60;;;;;;;5.81;59.39;100896.94;5016642;28;20294;-80
2023/04/07 00:44:11;;;;;;;9.07;8.23;;;;;;;5.83;58.57;100891.72;5016744;28;20240;-80
2023/04/07 00:46:38;;;;;;;11.00;8.23;;;;;;;5.83;59.21;100903.00;5016592;28;20637;-80
2023/04/07 00:49:04;;;;;;;9.40;8.70;;;;;;;5.84;60.17;100904.69;5016432;28;20210;-81
2023/04/07 00:51:31;;;;;;;9.53;8.73;;;;;;;5.83;60.54;100889.13;5017033;28;20209;-81
2023/04/07 00:53:58;;;;;;;9.20;8.50;;;;;;;5.87;60.14;100885.75;5017091;28;20237;-82
2023/04/07 00:56:25;;;;;;;9.27;8.47;;;;;;;5.90;60.01;100878.84;5016446;28;20273;-82
2023/04/07 00:58:51;;;;;;;9.97;9.20;;;;;;;5.88;60.67;100880.56;5016133;28;20225;-79
2023/04/07 01:01:22;;;;;;;8.37;7.67;;;;;;;5.87;60.07;100872.78;5016823;28;20582;-81
2023/04/07 01:03:53;;;;;;;9.10;8.30;;;;;;;5.81;60.49;100868.44;5016332;28;20601;-83
2023/04/07 01:06:24;;;;;;;10.00;9.10;;;;;;;5.74;60.34;100866.63;5016352;28;20211;-82
2023/04/07 01:08:57;;;;;;;9.33;8.53;;;;;;;5.73;61.16;100865.78;5028011;28;20292;-82
2023/04/07 01:11:30;;;;;;;9.70;8.87;;;;;;;5.74;61.14;100853.69;5018504;28;20675;-83
2023/04/07 01:13:59;;;;;;;9.30;8.43;;;;;;;5.63;60.98;100856.22;5016048;28;20267;-79
2023/04/07 01:16:31;;;;;;;8.80;8.00;;;;;;;5.61;61.52;100847.56;5016119;28;20203;-79
2023/04/07 01:19:04;;;;;;;9.10;8.33;;;;;;;5.64;61.85;100831.16;5016048;28;20332;-78
2023/04/07 01:21:33;;;;;;;9.70;8.90;;;;;;;5.60;61.79;100827.69;5015968;28;20204;-80
2023/04/07 01:24:22;;;;;;;10.07;9.27;;;;;;;5.58;62.22;100825.06;5015720;28;20268;-79
2023/04/07 01:26:51;;;;;;;9.33;8.63;;;;;;;5.56;61.95;100816.44;5015674;28;20270;-80
2023/04/07 01:29:27;;;;;;;9.57;8.57;;;;;;;5.50;62.60;100818.97;5015704;28;20672;-81
2023/04/07 01:31:56;;;;;;;10.00;9.10;;;;;;;5.45;61.96;100805.16;5015974;28;20209;-80
2023/04/07 01:34:25;;;;;;;9.50;8.70;;;;;;;5.40;62.73;100801.63;5015975;28;20302;-82
2023/04/07 01:36:53;;;;;;;10.17;9.27;;;;;;;5.34;62.52;100794.69;5020016;28;20208;-80
2023/04/07 01:39:20;;;;;;;9.63;8.83;;;;;;;5.31;62.72;100781.72;5027221;28;20288;-79
2023/04/07 01:41:46;;;;;;;10.27;9.27;;;;;;;5.25;62.89;100783.38;5035746;28;20243;-79
2023/04/07 01:44:14;;;;;;;10.90;9.80;;;;;;;5.28;62.97;100780.84;5035369;28;20238;-81
2023/04/07 01:46:42;;;;;;;9.30;8.60;;;;;;;5.25;63.19;100780.81;5035302;28;20211;-79
2023/04/07 01:49:08;;;;;;;9.70;8.90;;;;;;;5.16;63.69;100786.78;5035441;28;20204;-79
2023/04/07 01:51:35;;;;;;;9.80;8.93;;;;;;;5.15;63.92;100777.25;5037615;28;20260;-80
2023/04/07 01:54:02;;;;;;;10.23;9.43;;;;;;;5.16;63.43;100771.25;5038878;28;20285;-81
2023/04/07 01:56:29;;;;;;;9.60;8.80;;;;;;;5.14;63.77;100758.28;5038919;28;20259;-79
2023/04/07 01:58:55;;;;;;;8.70;8.00;;;;;;;5.13;64.54;100755.69;5038712;28;20720;-79
2023/04/07 02:01:21;;;;;;;8.73;7.93;;;;;;;5.12;64.23;100752.25;5038891;28;20212;-82
2023/04/07 02:03:54;;;;;;;10.83;9.73;;;;;;;5.09;63.20;100744.44;5038869;28;20249;-81
2023/04/07 02:06:27;;;;;;;10.00;9.20;;;;;;;5.15;63.73;100743.63;5039738;28;20208;-82
2023/04/07 02:08:57;;;;;;;9.60;8.77;;;;;;;5.12;63.18;100751.38;5019393;28;20635;-81
2023/04/07 02:11:26;;;;;;;8.87;8.07;;;;;;;5.12;63.79;100757.41;5019708;28;20196;-82
2023/04/07 02:13:54;;;;;;;9.57;8.77;;;;;;;5.16;63.02;100758.31;5019138;28;20623;-81
2023/04/07 02:16:22;;;;;;;10.17;9.17;;;;;;;5.11;63.71;100765.16;5019407;28;20201;-82
2023/04/07 02:18:50;;;;;;;9.93;8.93;;;;;;;5.10;63.73;100760.84;5019521;28;20791;-82
2023/04/07 02:21:17;;;;;;;9.97;9.13;;;;;;;5.10;63.74;100769.47;5019573;28;20248;-83
2023/04/07 02:23:43;;;;;;;9.70;8.80;;;;;;;5.05;64.12;100759.94;5018917;28;20260;-83
2023/04/07 02:26:10;;;;;;;10.07;9.10;;;;;;;5.06;64.11;100759.09;5019249;28;20208;-82
2023/04/07 02:28:36;;;;;;;10.20;9.30;;;;;;;5.07;63.48;100758.22;5018642;28;20199;-80
2023/04/07 02:31:03;;;;;;;9.57;8.67;;;;;;;4.97;63.79;100749.50;5019739;28;20219;-82
2023/04/07 02:33:29;;;;;;;9.53;8.67;;;;;;;4.98;64.63;100749.53;5018716;28;20251;-80
2023/04/07 02:35:57;;;;;;;9.83;9.03;;;;;;;5.00;64.04;100741.78;5019521;28;20234;-79
2023/04/07 02:38:23;;;;;;;9.47;8.67;;;;;;;5.00;64.30;100748.69;5018579;28;20842;-81
2023/04/07 02:40:49;;;;;;;9.53;8.77;;;;;;;5.01;63.92;100750.41;5019292;28;20214;-80
2023/04/07 02:43:17;;;;;;;9.93;9.03;;;;;;;5.00;63.85;100752.13;5018468;28;20266;-79
2023/04/07 02:45:44;;;;;;;10.20;9.30;;;;;;;4.87;64.95;100763.22;5018754;28;20252;-79
2023/04/07 02:48:10;;;;;;;10.63;9.10;;;;;;;4.83;65.00;100749.38;5018765;28;20200;-79
2023/04/07 02:50:36;;;;;;;10.53;9.63;;;;;;;4.80;65.01;100751.06;5019074;28;20233;-81
2023/04/07 02:53:04;;;;;;;10.23;9.43;;;;;;;4.82;64.81;100739.06;5019023;28;20221;-82
2023/04/07 02:55:30;;;;;;;10.33;9.33;;;;;;;4.81;64.83;100738.16;5018378;28;20223;-80
2023/04/07 02:57:57;;;;;;;10.77;9.87;;;;;;;4.80;64.94;100739.03;5018394;28;20284;-81
2023/04/07 03:00:23;;;;;;;10.40;9.60;;;;;;;4.72;65.30;100736.38;5018838;28;20215;-82
2023/04/07 03:02:49;;;;;;;10.13;9.17;;;;;;;4.72;64.91;100727.75;5018149;28;20692;-82
2023/04/07 03:05:16;;;;;;;9.57;8.77;;;;;;;4.67;65.40;100722.50;5018594;28;20229;-83
2023/04/07 03:07:42;;;;;;;8.97;8.27;;;;;;;4.54;65.75;100726.69;5022073;28;20213;-82
2023/04/07 03:10:11;;;;;;;9.67;8.87;;;;;;;4.53;65.64;100719.78;5022921;28;20207;-82
2023/04/07 03:12:37;;;;;;;9.63;8.83;;;;;;;4.54;65.39;100718.09;5018660;28;20208;-81
2023/04/07 03:15:04;;;;;;;10.40;9.50;;;;;;;4.41;65.13;100723.97;5018355;28;20240;-80
2023/04/07 03:17:31;;;;;;;10.30;9.50;;;;;;;4.38;65.45;100720.50;5017532;28;20250;-79
2023/04/07 03:19:57;;;;;;;10.20;9.30;;;;;;;4.35;65.60;100723.03;5018092;28;20224;-80
2023/04/07 03:22:23;;;;;;;9.50;8.70;;;;;;;4.32;65.81;100712.69;5018314;28;20211;-81
2023/04/07 03:24:50;;;;;;;10.60;9.53;;;;;;;4.22;66.11;100715.13;5017738;28;20255;-79
2023/04/07 03:27:19;;;;;;;10.17;9.30;;;;;;;4.23;66.34;100714.31;5018088;28;20204;-80
2023/04/07 03:29:45;;;;;;;9.67;8.90;;;;;;;4.24;65.92;100705.69;5018603;28;20210;-81
2023/04/07 03:32:12;;;;;;;10.23;9.30;;;;;;;4.22;65.08;100705.66;5018062;28;20212;-81
2023/04/07 03:34:38;;;;;;;11.03;10.03;;;;;;;4.21;64.71;100721.16;5017659;28;20252;-83
2023/04/07 03:37:04;;;;;;;10.00;9.13;;;;;;;4.21;65.34;100732.38;5017566;28;20214;-80
2023/04/07 03:39:31;;;;;;;10.70;9.70;;;;;;;4.16;66.15;100727.16;5027919;28;20230;-81
2023/04/07 03:41:57;;;;;;;11.27;10.17;;;;;;;4.19;65.07;100718.56;5037656;28;20258;-81
2023/04/07 03:44:25;;;;;;;10.03;9.23;;;;;;;4.21;65.58;100716.00;5037462;28;20286;-80
2023/04/07 03:46:52;;;;;;;10.23;9.33;;;;;;;4.24;65.44;100719.50;5037311;28;20217;-82
2023/04/07 03:49:18;;;;;;;11.10;10.20;;;;;;;4.26;64.24;100715.22;5037600;28;20677;-83
2023/04/07 03:51:45;;;;;;;10.83;9.83;;;;;;;4.06;64.85;100753.69;5037800;28;20218;-82
2023/04/07 03:54:11;;;;;;;10.63;9.60;;;;;;;3.96;65.35;100752.75;5037878;28;20266;-82
2023/04/07 03:56:38;;;;;;;10.43;9.60;;;;;;;3.87;65.75;100750.03;5037931;28;20210;-83
2023/04/07 03:59:04;;;;;;;10.50;9.70;;;;;;;3.93;65.25;100744.94;5038017;28;20226;-81
2023/04/07 04:01:32;;;;;;;10.83;10.00;;;;;;;3.88;65.02;100750.88;5037374;28;20210;-81
2023/04/07 04:03:58;;;;;;;11.50;10.43;;;;;;;3.70;65.71;100764.41;5037545;28;20251;-81
2023/04/07 04:06:25;;;;;;;11.97;10.87;;;;;;;3.72;65.83;100752.38;5036830;28;20207;-80
2023/04/07 04:08:51;;;;;;;11.70;10.77;;;;;;;3.77;64.99;100749.03;5025459;28;20435;-79
2023/04/07 04:11:18;;;;;;;11.70;10.70;;;;;;;3.73;65.04;100756.72;5017097;28;20203;-82
2023/04/07 04:13:44;;;;;;;13.30;12.17;;;;;;;3.69;65.36;100762.69;5017396;28;20230;-82
2023/04/07 04:16:10;;;;;;;12.17;11.13;;;;;;;3.76;64.57;100761.91;5017817;28;20228;-82
2023/04/07 04:18:38;;;;;;;11.77;10.87;;;;;;;3.79;63.88;100769.72;5018037;28;20725;-82
2023/04/07 04:21:05;;;;;;;11.90;10.90;;;;;;;3.71;64.78;100768.75;5017436;28;20266;-80
2023/04/07 04:23:31;;;;;;;12.00;11.10;;;;;;;3.74;64.93;100774.78;5017316;28;20227;-79
2023/04/07 04:25:59;;;;;;;12.70;11.70;;;;;;;3.78;65.08;100780.88;5017293;28;20211;-82
2023/04/07 04:28:25;;;;;;;12.07;11.00;;;;;;;3.75;64.41;100783.44;5017714;28;20284;-82
2023/04/07 04:30:51;;;;;;;13.33;12.13;;;;;;;3.74;64.27;100782.53;5017645;28;20207;-82
2023/04/07 04:33:18;;;;;;;12.50;11.40;;;;;;;3.76;64.20;100790.31;5017527;28;20580;-82
2023/04/07 04:35:46;;;;;;;14.00;12.70;;;;;;;3.76;64.38;100800.63;5018010;28;20219;-81
2023/04/07 04:38:12;;;;;;;12.43;11.43;;;;;;;3.80;64.23;100796.41;5025193;28;20207;-80
2023/04/07 04:40:39;;;;;;;12.10;11.10;;;;;;;3.69;65.18;100807.44;5019312;28;20250;-81
2023/04/07 04:43:06;;;;;;;12.73;11.63;;;;;;;3.65;65.47;100804.75;5017979;28;20246;-81
2023/04/07 04:45:32;;;;;;;13.10;12.10;;;;;;;3.60;65.49;100802.13;5018000;28;20211;-82
2023/04/07 04:47:58;;;;;;;12.70;11.50;;;;;;;3.51;66.17;100799.41;5018002;28;20206;-82
2023/04/07 04:50:25;;;;;;;26.03;11.47;;;;;;;3.49;66.06;100794.22;5017736;28;20234;-80
2023/04/07 04:52:52;;;;;;;12.07;10.97;;;;;;;3.40;65.98;100791.50;5017940;28;20213;-81
2023/04/07 04:55:19;;;;;;;14.03;12.77;;;;;;;3.40;66.39;100781.16;5018365;28;20239;-81
2023/04/07 04:57:45;;;;;;;14.13;12.83;;;;;;;3.43;66.21;100777.75;5017961;28;20207;-80
2023/04/07 05:00:12;;;;;;;12.67;11.57;;;;;;;3.32;66.80;100773.31;5018721;28;20278;-80
2023/04/07 05:02:39;;;;;;;13.50;12.20;;;;;;;3.31;66.64;100755.22;5018228;28;20207;-82
2023/04/07 05:05:06;;;;;;;14.77;13.37;;;;;;;3.23;67.18;100760.28;5018904;28;20232;-81
2023/04/07 05:07:32;;;;;;;13.47;12.33;;;;;;;3.34;66.38;100737.22;5013810;28;20208;-81
2023/04/07 05:10:00;;;;;;;13.83;12.73;;;;;;;3.33;67.05;100758.69;5018369;28;20199;-82
2023/04/07 05:12:27;;;;;;;14.10;12.80;;;;;;;3.30;66.59;100744.03;5018714;28;20253;-80
2023/04/07 05:14:53;;;;;;;13.07;12.07;;;;;;;3.20;67.65;100746.47;5018168;28;20366;-80
2023/04/07 05:17:19;;;;;;;13.83;11.73;;;;;;;3.24;67.72;100740.50;5017967;28;20235;-81
2023/04/07 05:19:46;;;;;;;13.70;12.50;;;;;;;3.14;68.68;100731.75;5017994;28;20261;-82
2023/04/07 05:22:12;;;;;;;14.17;12.97;;;;;;;3.11;67.98;100714.53;5018730;28;20228;-82
2023/04/07 05:24:38;;;;;;;13.63;12.47;;;;;;;3.13;68.44;100707.66;5018658;28;20229;-82
2023/04/07 05:27:06;;;;;;;12.90;11.73;;;;;;;3.14;68.48;100693.91;5017976;28;20203;-83
2023/04/07 05:29:32;;;;;;;13.90;12.80;;;;;;;3.11;68.77;100691.31;5018080;28;20259;-82
2023/04/07 05:32:00;;;;;;;14.57;13.17;;;;;;;3.06;69.15;100681.75;5017254;28;20195;-80
2023/04/07 05:34:26;;;;;;;14.43;13.00;;;;;;;3.18;68.28;100671.63;5017323;28;20218;-80
2023/04/07 05:36:53;;;;;;;13.60;12.50;;;;;;;3.19;69.55;100670.75;5014485;28;20655;-81
2023/04/07 05:39:19;;;;;;;14.80;13.50;;;;;;;3.24;69.01;100671.72;5018082;28;20198;-81
2023/04/07 05:41:45;;;;;;;13.30;12.07;;;;;;;3.27;69.28;100661.44;5016952;28;20204;-82
2023/04/07 05:44:13;;;;;;;13.77;12.47;;;;;;;3.32;69.12;100653.75;5016697;28;20246;-80
2023/04/07 05:46:39;;;;;;;14.03;12.90;;;;;;;3.31;69.95;100660.66;5017234;28;20196;-82
2023/04/07 05:49:06;;;;;;;13.50;12.40;;;;;;;3.41;68.88;100651.31;5018547;28;20710;-81
2023/04/07 05:51:32;;;;;;;13.43;12.33;;;;;;;3.41;68.40;100664.22;5017872;28;20196;-80
2023/04/07 05:54:01;;;;;;;14.23;13.13;;;;;;;3.49;68.70;100674.63;5018328;28;20218;-80
2023/04/07 05:56:28;;;;;;;13.90;12.73;;;;;;;3.54;68.35;100680.72;5018330;28;20210;-80
2023/04/07 05:58:55;;;;;;;14.30;13.10;;;;;;;3.58;68.12;100687.66;5014433;28;20234;-81
2023/04/07 06:01:22;;;;;;;14.57;13.17;;;;;;;3.62;68.40;100696.31;5017834;28;20206;-82
2023/04/07 06:03:49;;;;;;;15.33;13.83;;;;;;;3.67;68.53;100702.44;5017952;28;20250;-81
2023/04/07 06:06:15;;;;;;;14.77;13.67;;;;;;;3.75;68.07;100704.25;5019658;28;20337;-81
2023/04/07 06:08:41;;;;;;;14.80;13.20;;;;;;;3.84;66.56;100718.13;5018914;28;20210;-80
2023/04/07 06:11:08;;;;;;;14.20;13.13;;;;;;;3.98;65.73;100737.25;5017585;28;20717;-79
2023/04/07 06:13:34;;;;;;;15.17;13.93;;;;;;;4.08;64.72;100772.66;5017302;28;20263;-80
2023/04/07 06:16:00;;;;;;;15.80;14.47;;;;;;;4.14;65.01;100797.72;5016570;28;20243;-79
2023/04/07 06:18:28;;;;;;;15.83;14.53;;;;;;;4.18;66.30;100817.56;5036101;28;20207;-80
2023/04/07 06:20:55;;;;;;;15.43;14.13;;;;;;;4.23;65.14;100809.91;5039582;28;20219;-81
2023/04/07 06:23:21;;;;;;;15.80;14.40;;;;;;;4.32;64.50;100818.66;5040300;28;20196;-81
2023/04/07 06:25:50;;;;;;;15.67;14.23;;;;;;;4.40;63.42;100841.13;5038198;28;20214;-79
2023/04/07 06:28:17;;;;;;;15.60;14.40;;;;;;;4.47;62.81;100866.19;5039942;28;20188;-81
2023/04/07 06:30:43;;;;;;;16.57;14.93;;;;;;;4.49;63.12;100890.34;5039719;28;20216;-79
2023/04/07 06:33:09;;;;;;;15.27;14.03;;;;;;;4.53;62.97;100899.88;5037441;28;20212;-80
2023/04/07 06:35:38;;;;;;;15.80;14.47;;;;;;;4.54;62.97;100911.97;5036689;28;20224;-81
2023/04/07 06:38:05;;;;;;;16.33;15.02;;;;;;;4.64;62.49;100925.88;5040328;28;20449;-82
2023/04/07 06:40:31;;;;;;;15.87;14.57;;;;;;;4.64;63.05;100936.19;5056307;28;20250;-82
2023/04/07 06:42:57;;;;;;;15.93;14.53;;;;;;;4.69;62.25;100961.28;5059527;28;20201;-82
2023/04/07 06:45:24;;;;;;;16.77;15.13;;;;;;;4.70;62.82;100972.50;5059461;28;20203;-81
2023/04/07 06:47:50;;;;;;;15.80;14.53;;;;;;;4.74;62.96;100974.28;5059520;28;20217;-86
2023/04/07 06:50:19;;;;;;;16.20;14.90;;;;;;;4.71;62.53;100985.44;5043008;28;20232;-81
2023/04/07 06:52:47;;;;;;;15.63;14.27;;;;;;;4.79;62.94;100985.56;5040098;28;20279;-81
2023/04/07 06:55:13;;;;;;;16.97;15.57;;;;;;;4.87;63.15;100983.94;5039963;28;20271;-81
2023/04/07 06:57:40;;;;;;;16.50;15.10;;;;;;;4.92;63.55;100981.44;5040015;28;20218;-80
2023/04/07 07:00:08;;;;;;;15.97;14.57;;;;;;;4.97;64.51;100967.72;5038516;28;20205;-81
2023/04/07 07:02:34;;;;;;;16.17;14.97;;;;;;;5.06;64.44;100948.81;5038024;28;20212;-82
2023/04/07 07:05:02;;;;;;;16.10;14.87;;;;;;;5.16;63.83;100948.06;5035549;28;20260;-81
2023/04/07 07:07:29;;;;;;;16.30;15.00;;;;;;;5.25;63.75;100947.34;5031709;28;20211;-80
2023/04/07 07:09:56;;;;;;;16.33;14.73;;;;;;;5.31;62.95;100955.16;5015168;28;20225;-81
2023/04/07 07:12:23;;;;;;;15.37;14.17;;;;;;;5.42;63.33;100952.66;5016006;28;20208;-81
2023/04/07 07:14:49;;;;;;;16.00;14.53;;;;;;;5.43;62.35;100961.28;5015789;28;20253;-80
2023/04/07 07:17:15;;;;;;;15.20;14.00;;;;;;;5.46;63.06;100971.69;5015680;28;20256;-81
2023/04/07 07:19:42;;;;;;;14.53;13.43;;;;;;;5.54;61.17;100983.84;5016228;28;20610;-82
2023/04/07 07:22:08;;;;;;;16.13;14.93;;;;;;;5.61;61.33;101002.94;5015994;28;20558;-81
2023/04/07 07:24:35;;;;;;;15.23;14.13;;;;;;;5.61;62.16;101017.59;5015113;28;20604;-81
2023/04/07 07:27:03;;;;;;;16.53;15.17;;;;;;;5.67;62.43;101015.06;5015263;28;20535;-81
2023/04/07 07:29:30;;;;;;;17.60;16.13;;;;;;;5.76;62.49;101007.38;5015791;28;20230;-81
2023/04/07 07:31:56;;;;;;;16.33;14.93;;;;;;;5.82;61.85;101015.22;5016075;28;20214;-81
2023/04/07 07:34:22;;;;;;;15.83;14.63;;;;;;;5.90;61.65;101018.75;5015910;28;20228;-81
2023/04/07 07:36:49;;;;;;;14.80;13.70;;;;;;;6.02;61.16;101037.91;5015746;28;20214;-80
2023/04/07 07:39:15;;;;;;;17.97;16.23;;;;;;;6.14;60.44;101048.38;5029253;28;20491;-82
2023/04/07 07:41:41;;;;;;;16.03;14.73;;;;;;;6.28;60.24;101051.97;5035994;28;20209;-80
2023/04/07 07:44:09;;;;;;;15.70;14.47;;;;;;;6.33;60.11;101065.81;5035892;28;20233;-80
2023/04/07 07:46:35;;;;;;;15.83;14.57;;;;;;;6.43;59.57;101094.44;5036062;28;20212;-80
2023/04/07 07:49:04;;;;;;;14.73;13.43;;;;;;;6.57;57.77;101092.81;5035109;28;20209;-80
2023/04/07 07:51:30;;;;;;;15.23;13.60;;;;;;;6.67;56.62;101145.66;5036276;28;20229;-81
2023/04/07 07:53:56;;;;;;;13.90;12.77;;;;;;;6.74;55.73;101183.78;5035697;28;20248;-81
2023/04/07 07:56:23;;;;;;;15.35;14.13;;;;;;;6.87;55.49;101208.94;5034780;28;20453;-80
2023/04/07 07:58:49;;;;;;;13.53;12.33;;;;;;;6.93;54.34;101231.50;5035534;28;20769;-81
2023/04/07 08:01:17;;;;;;;12.17;11.17;;;;;;;6.99;53.78;101274.81;5035852;28;20273;-81
2023/04/07 08:03:44;;;;;;;12.37;11.37;;;;;;;7.05;53.76;101314.66;5035594;28;20878;-81
2023/04/07 08:06:10;;;;;;;12.80;11.73;;;;;;;7.11;53.62;101342.41;5035411;28;20320;-80
2023/04/07 08:08:37;;;;;;;12.83;11.20;;;;;;;7.11;53.37;101377.03;5021890;28;20203;-81
2023/04/07 08:11:03;;;;;;;14.00;12.90;;;;;;;7.04;57.68;101390.81;5015797;28;20254;-82
2023/04/07 08:13:29;;;;;;;14.90;13.60;;;;;;;7.11;57.59;101338.09;5016640;28;20623;-82
2023/04/07 08:15:56;;;;;;;14.20;13.10;;;;;;;7.20;57.99;101302.72;5016321;28;20210;-81
2023/04/07 08:18:24;;;;;;;14.90;13.60;;;;;;;7.34;56.79;101283.78;5015407;28;20238;-80
2023/04/07 08:20:50;;;;;;;13.93;12.93;;;;;;;7.46;56.37;101290.78;5013655;28;20212;-79
2023/04/07 08:23:16;;;;;;;14.20;13.07;;;;;;;7.54;56.29;101290.84;5014453;28;20207;-79
2023/04/07 08:25:43;;;;;;;15.10;14.00;;;;;;;7.62;56.18;101285.72;5014325;28;20233;-83
2023/04/07 08:28:09;;;;;;;14.83;13.50;;;;;;;7.70;58.81;101290.09;5015442;28;20218;-81
2023/04/07 08:30:36;;;;;;;14.60;13.50;;;;;;;7.88;59.08;101220.88;5016430;28;20300;-81
2023/04/07 08:33:04;;;;;;;15.03;13.57;;;;;;;7.99;55.98;101215.72;5015750;28;20207;-80
2023/04/07 08:35:31;;;;;;;16.00;14.40;;;;;;;8.08;57.52;101200.16;5015728;28;20735;-82
2023/04/07 08:37:58;;;;;;;14.10;13.03;;;;;;;8.09;57.45;101220.13;5015481;28;20628;-82
2023/04/07 08:40:24;;;;;;;13.20;11.87;;;;;;;8.22;54.21;101201.06;5015814;28;20260;-79
2023/04/07 08:42:52;;;;;;;13.07;11.97;;;;;;;8.36;54.01;101232.34;5015051;28;20210;-79
2023/04/07 08:45:18;;;;;;;12.83;11.83;;;;;;;8.38;53.29;101290.44;5015290;28;20236;-80
2023/04/07 08:47:46;;;;;;;11.80;10.93;;;;;;;8.42;53.79;101325.19;5015533;28;20214;-80
2023/04/07 08:50:17;;;;;;;13.03;11.93;;;;;;;8.42;52.32;101366.81;5016983;28;20318;-81
2023/04/07 08:52:49;;;;;;;13.20;12.20;;;;;;;8.45;52.68;101396.31;5015829;28;20213;-81
2023/04/07 08:55:16;;;;;;;18.90;14.07;;;;;;;8.63;62.36;101377.31;5017496;28;20268;-81
2023/04/07 08:57:43;;;;;;;12.53;11.37;;;;;;;8.70;54.72;101243.75;5017245;28;20230;-80
2023/04/07 09:00:11;;;;;;;13.00;11.80;;;;;;;8.73;54.04;101284.50;5016827;28;20212;-80
2023/04/07 09:02:39;;;;;;;14.50;13.30;;;;;;;8.72;55.97;101324.41;5016854;28;20205;-80
2023/04/07 09:05:08;;;;;;;13.20;12.07;;;;;;;8.76;56.12;101334.00;5016663;28;20281;-80
2023/04/07 09:07:35;;;;;;;13.20;12.10;;;;;;;8.86;55.15;101283.69;5016523;28;20683;-79
2023/04/07 09:10:04;;;;;;;11.93;10.97;;;;;;;8.93;56.49;101331.41;5016898;28;20236;-80
2023/04/07 09:12:31;;;;;;;11.50;10.63;;;;;;;9.14;58.92;101297.59;5016465;28;20206;-81
2023/04/07 09:14:58;;;;;;;11.00;10.10;;;;;;;9.51;59.36;101208.09;5015979;28;20241;-80
2023/04/07 09:17:26;;;;;;;10.67;9.90;;;;;;;9.75;56.79;101168.06;5016503;28;20218;-80
2023/04/07 09:19:55;;;;;;;10.77;9.83;;;;;;;10.04;59.68;101214.91;5016373;28;20257;-80
2023/04/07 09:22:35;;;;;;;10.63;9.73;;;;;;;10.28;55.09;101177.38;5015533;28;20238;-80
2023/04/07 09:25:14;;;;;;;10.93;9.93;;;;;;;10.39;53.82;101234.78;5005645;28;20246;-80
2023/04/07 09:27:40;;;;;;;9.33;8.53;;;;;;;10.41;50.74;101289.59;5015475;28;20210;-80
2023/04/07 09:30:14;;;;;;;9.13;8.40;;;;;;;10.34;49.08;101364.41;5015148;28;20717;-80
2023/04/07 09:32:41;;;;;;;9.40;8.70;;;;;;;10.25;47.75;101453.13;5015529;28;20210;-81
2023/04/07 09:35:08;;;;;;;9.50;8.50;;;;;;;10.16;48.29;101540.09;5014765;28;20293;-80
2023/04/07 09:37:34;;;;;;;9.07;8.27;;;;;;;10.29;50.81;101593.19;5013061;28;20241;-81
2023/04/07 09:40:01;;;;;;;8.33;7.63;;;;;;;10.39;50.68;101601.91;5013488;28;20720;-81
2023/04/07 09:42:31;;;;;;;9.00;8.20;;;;;;;10.62;51.60;101576.66;5015177;28;20207;-80
2023/04/07 09:44:58;;;;;;;8.83;8.13;;;;;;;10.63;47.48;101588.00;5014781;28;20238;-80
2023/04/07 09:47:27;;;;;;;8.63;7.93;;;;;;;10.64;46.84;101608.84;5014267;28;20222;-80
2023/04/07 09:49:55;;;;;;;8.47;7.77;;;;;;;10.66;44.90;101648.94;5013781;28;20195;-82
2023/04/07 09:52:39;;;;;;;9.10;8.40;;;;;;;10.62;44.80;101681.09;5012362;28;20221;-82
2023/04/07 09:55:06;;;;;;;8.20;7.50;;;;;;;10.53;44.69;101747.25;5005438;28;20582;-81
2023/04/07 09:57:39;;;;;;;9.27;8.33;;;;;;;10.49;46.68;101763.78;5012600;28;20570;-82
2023/04/07 10:00:07;;;;;;;8.93;8.23;;;;;;;10.53;45.14;101741.16;5013117;28;20217;-81
2023/04/07 10:02:33;;;;;;;9.60;8.90;;;;;;;10.58;46.79;101778.56;5013309;28;20207;-82
2023/04/07 10:05:00;;;;;;;9.33;8.50;;;;;;;10.59;45.60;101767.28;5014573;28;20227;-80
2023/04/07 10:07:27;;;;;;;9.07;8.30;;;;;;;10.59;44.36;101754.22;5013515;28;20234;-81
2023/04/07 10:09:53;;;;;;;8.63;7.97;;;;;;;10.59;45.37;101795.13;5014049;28;20207;-81
2023/04/07 10:12:19;;;;;;;9.40;8.60;;;;;;;10.59;45.12;101809.06;5014447;28;20223;-81
2023/04/07 10:14:47;;;;;;;9.13;8.43;;;;;;;10.66;45.63;101803.00;5015966;28;20265;-81
2023/04/07 10:17:18;;;;;;;9.20;8.40;;;;;;;10.72;44.26;101782.13;5016203;28;20226;-80
2023/04/07 10:19:46;;;;;;;8.73;8.03;;;;;;;10.72;43.93;101800.41;5015796;28;20211;-81
2023/04/07 10:22:14;;;;;;;8.87;8.07;;;;;;;10.78;42.86;101804.72;5015294;28;20230;-82
2023/04/07 10:24:51;;;;;;;9.03;7.93;;;;;;;10.75;43.71;101853.50;5012360;28;20280;-81
2023/04/07 10:27:24;;;;;;;8.10;7.40;;;;;;;10.79;44.58;101857.88;5015724;28;20206;-83
2023/04/07 10:29:52;;;;;;;8.57;7.80;;;;;;;10.82;44.21;101835.25;5015136;28;20237;-83
2023/04/07 10:32:19;;;;;;;8.93;7.97;;;;;;;10.83;43.75;101815.22;5016271;28;20236;-82
2023/04/07 10:34:59;;;;;;;8.17;7.37;;;;;;;10.88;43.30;101816.97;5015829;28;20223;-81
2023/04/07 10:37:26;;;;;;;8.80;8.00;;;;;;;10.88;43.11;101840.47;5014849;28;20202;-81
2023/04/07 10:40:26;;;;;;;8.17;7.47;;;;;;;11.02;43.83;101848.34;5015509;28;20230;-81
2023/04/07 10:42:53;;;;;;;8.40;7.47;;;;;;;11.11;43.17;101842.25;5014142;28;20238;-82
2023/04/07 10:45:55;;;;;;;8.07;7.40;;;;;;;11.19;43.58;101853.59;5014634;28;20228;-82
2023/04/07 10:48:22;;;;;;;9.60;8.73;;;;;;;11.19;43.97;101843.13;5012596;28;20308;-83
2023/04/07 10:51:14;;;;;;;9.03;8.27;;;;;;;11.33;44.95;101819.63;5012052;28;20320;-84
2023/04/07 10:54:21;;;;;;;8.07;7.40;;;;;;;11.45;42.74;101780.38;5014679;28;20225;-85
2023/04/07 10:57:20;;;;;;;8.03;7.33;;;;;;;11.53;42.86;101778.66;5014473;28;20248;-82
2023/04/07 11:00:22;;;;;;;9.73;8.27;;;;;;;11.61;42.50;101812.63;4992054;28;20784;-84
2023/04/07 11:02:50;;;;;;;9.03;8.20;;;;;;;11.65;42.17;101845.75;5013545;28;20627;-84
2023/04/07 11:05:22;;;;;;;8.23;7.53;;;;;;;11.72;42.10;101842.25;5014516;28;20219;-84
2023/04/07 11:07:56;;;;;;;8.37;7.67;;;;;;;11.83;42.19;101862.31;5044680;23;20273;-79
2023/04/07 11:10:23;;;;;;;8.80;8.00;;;;;;;11.94;42.47;101860.59;5025651;28;20288;-79
2023/04/07 11:13:03;;;;;;;9.07;8.27;;;;;;;12.07;41.56;101849.22;5026794;28;20202;-79
2023/04/07 11:15:30;;;;;;;9.23;8.27;;;;;;;12.16;41.63;101884.97;5022642;28;20253;-78
2023/04/07 11:18:10;;;;;;;8.83;8.03;;;;;;;12.30;43.26;101909.34;5009399;28;20234;-80
2023/04/07 11:20:49;;;;;;;8.57;7.77;;;;;;;12.52;42.09;101870.00;5005567;28;20203;-79
2023/04/07 11:23:17;;;;;;;9.13;8.23;;;;;;;12.73;41.60;101869.06;5010980;28;20259;-79
2023/04/07 11:25:45;;;;;;;8.93;8.07;;;;;;;12.92;39.67;101854.09;5014677;28;20749;-77